Метеостанция


АнтоновUKKM 281530Z AUTO 16008G14MPS 9999 NCD 23/01 Q1011
БориспольUKBB 281600Z 18008MPS CAVOK 22/M01 Q1012 R88/CLRD// NOSIG
ДнепропетровскUKDD 281600Z 21002MPS 180V250 CAVOK 20/05 Q1017 R08/090070 NOSIG
ДонецкNo METAR available for UKCC.
ЖуляныUKKK 281530Z 17005MPS 120V220 CAVOK 23/00 Q1012 R08/CLRD70 NOSIG
Запорожье(Мокрая)UKDE 281600Z 20002MPS CAVOK 21/05 Q1018 R20/////// NOSIG
Ивано-ФранковскUKLI 281530Z 11003MPS 9999 BKN040 BKN100 23/13 Q1006 R10/090070 NOSIG
Кривой РогUKDR 281600Z 17003MPS CAVOK 20/03 Q1017 R18/09//70 NOSIG
ЛуганскNo METAR available for UKCW.
ЛьвовUKLL 281600Z 00000MPS 9999 SCT033CB OVC100 19/10 Q1006 R13/CLRD// NOSIG
МариупольNo METAR available for UKCM.
НиколаевUKON 281500Z 22006MPS 190V260 CAVOK 20/01 Q1016 NOSIG
ОдессаUKOO 281600Z 16005MPS CAVOK 12/06 Q1017 R16/090060 NOSIG
РовноUKLR 281500Z 18004MPS 150V230 9999 SCT026CB BKN100 23/09 Q1007 R11/190060 NOSIG
СимферопольNo METAR available for UKFF.
УжгородUKLU 281500Z VRB02MPS 9999 SCT050 OVC100 21/10 Q1005 R10/090070 NOSIG
ХарьковUKHH 281600Z 15003MPS CAVOK 21/00 Q1018 R07/0///67 NOSIG
ЧеркассыNo METAR available for UKKE.
ЧерновцыUKLN 281530Z 14005MPS 100V190 CAVOK 24/08 Q1007 R15/09//70 NOSIG
Скачать:
Скачать этот файл (Metar_шпаргалка.jpg)Расшифровка METAR[ ]4799 Кб
Вся информация, которая имеется в использовании на сайте и доступная для скачивания, получена исключительно из открытых источников информации сети Интернет, всякое совпадение с данными, имеющими ограничения в доступе, случайное и не является преднамеренным.